Terminal Aerodrome Forecast
Issued by NWS Mobile, AL

Home | Current Version | Previous Version | Text Only | Print | Product List | Glossary On
Versions: 1 2 3 4 5 6 7 8 9 10 11 12 13 14 15 16 17 18 19
000
FTUS44 KMOB 211140
TAFMOB
TAF
KMOB 211140Z 2112/2212 14009KT 5SM BR OVC006
     FM211500 14014KT 6SM BR OVC009
     FM211700 15015G21KT P6SM VCSH BKN020
      TEMPO 2118/2122 5SM SHRA OVC015
     FM220000 14010KT 3SM BR OVC003=

USA.gov is the U.S. government's official web portal to all federal, state and local government web resources and services.